Time;durP1;ratioP1;P1;durP2;ratioP2;P2;SDS_P1;SDS_P2;PMS_P1;PMS_P2;Temp;Humidity;BMP_temperature;BMP_pressure;BME280_temperature;BME280_humidity;BME280_pressure;Samples;Min_cycle;Max_cycle;Signal;HPM_P1;HPM_P2
2021/01/30 00:01:41;;;;;;;22.80;6.75;;;8.50;91.40;;;;;;5037222;28;20056;-73
2021/01/30 00:04:06;;;;;;;36.85;8.07;;;8.50;91.50;;;;;;5031938;28;20030;-73
2021/01/30 00:06:32;;;;;;;30.65;6.22;;;8.60;91.60;;;;;;5033440;28;20142;-73
2021/01/30 00:08:58;;;;;;;26.00;6.93;;;8.50;91.50;;;;;;5032839;28;20060;-74
2021/01/30 00:11:24;;;;;;;26.52;6.88;;;8.50;91.60;;;;;;5035568;28;20041;-73
2021/01/30 00:13:50;;;;;;;29.83;6.18;;;8.50;91.60;;;;;;5034079;28;20032;-74
2021/01/30 00:16:15;;;;;;;26.88;6.85;;;8.50;91.60;;;;;;5032591;28;20096;-73
2021/01/30 00:18:41;;;;;;;24.83;6.80;;;8.50;91.70;;;;;;5048630;28;20056;-74
2021/01/30 00:21:09;;;;;;;29.95;6.78;;;8.50;91.80;;;;;;5032589;28;20029;-75
2021/01/30 00:23:34;;;;;;;25.80;7.22;;;8.50;91.90;;;;;;5033378;28;20404;-73
2021/01/30 00:26:00;;;;;;;24.13;6.72;;;8.50;91.90;;;;;;5032234;28;20535;-74
2021/01/30 00:28:25;;;;;;;30.60;7.10;;;8.40;92.00;;;;;;5038193;28;20021;-76
2021/01/30 00:30:52;;;;;;;27.52;7.28;;;8.50;92.00;;;;;;5041915;28;20612;-73
2021/01/30 00:33:19;;;;;;;28.02;6.40;;;8.40;92.00;;;;;;5035204;28;20041;-72
2021/01/30 00:35:44;;;;;;;27.80;6.95;;;8.40;92.10;;;;;;5034301;28;20044;-74
2021/01/30 00:38:11;;;;;;;29.45;7.22;;;8.30;92.10;;;;;;5030732;28;20037;-74
2021/01/30 00:40:37;;;;;;;27.48;6.40;;;8.30;92.30;;;;;;5034863;28;20037;-72
2021/01/30 00:43:04;;;;;;;31.80;7.38;;;8.30;92.30;;;;;;5035332;28;20041;-73
2021/01/30 00:45:30;;;;;;;31.20;7.68;;;8.30;92.40;;;;;;5033749;28;20037;-75
2021/01/30 00:47:56;;;;;;;27.35;6.78;;;8.30;92.50;;;;;;5032577;28;20385;-70
2021/01/30 00:50:22;;;;;;;33.92;7.53;;;8.30;92.50;;;;;;5033059;28;20065;-74
2021/01/30 00:52:48;;;;;;;37.38;7.70;;;8.30;92.30;;;;;;5032464;28;20033;-73
2021/01/30 00:55:17;;;;;;;31.27;7.90;;;8.30;92.30;;;;;;5031763;28;20033;-73
2021/01/30 00:57:43;;;;;;;26.75;7.15;;;8.30;92.30;;;;;;5037197;28;20148;-73
2021/01/30 01:00:24;;;;;;;26.42;6.75;;;8.30;92.40;;;;;;5032262;28;20444;-73
2021/01/30 01:02:50;;;;;;;27.00;5.90;;;8.30;92.30;;;;;;5037681;28;20095;-76
2021/01/30 01:05:17;;;;;;;40.75;7.63;;;8.40;92.30;;;;;;5035975;28;20476;-73
2021/01/30 01:07:44;;;;;;;23.98;5.93;;;8.30;92.00;;;;;;5036804;28;20038;-74
2021/01/30 01:10:11;;;;;;;29.40;6.70;;;8.30;92.10;;;;;;5036558;28;20052;-74
2021/01/30 01:12:37;;;;;;;30.05;6.05;;;8.30;92.00;;;;;;5037583;28;20048;-73
2021/01/30 01:15:05;;;;;;;31.90;6.78;;;8.30;92.10;;;;;;5034145;28;20045;-73
2021/01/30 01:17:31;;;;;;;35.03;7.55;;;8.20;92.20;;;;;;5037477;28;20038;-74
2021/01/30 01:19:57;;;;;;;32.80;6.82;;;8.30;92.20;;;;;;5038415;28;20122;-73
2021/01/30 01:22:22;;;;;;;35.38;6.80;;;8.30;92.20;;;;;;5040538;28;20036;-71
2021/01/30 01:24:48;;;;;;;32.97;6.50;;;8.30;92.20;;;;;;5044666;28;20044;-73
2021/01/30 01:27:13;;;;;;;31.23;8.52;;;8.30;92.10;;;;;;5036353;28;20631;-73
2021/01/30 01:29:39;;;;;;;31.13;7.25;;;8.20;92.20;;;;;;5038587;28;20034;-73
2021/01/30 01:32:05;;;;;;;24.75;7.13;;;8.30;92.30;;;;;;5033678;28;20033;-75
2021/01/30 01:34:30;;;;;;;24.98;5.95;;;8.30;92.20;;;;;;5037031;28;21257;-75
2021/01/30 01:37:03;;;;;;;25.40;6.85;;;8.30;92.20;;;;;;5036475;28;20361;-72
2021/01/30 01:39:33;;;;;;;27.20;7.53;;;8.20;92.10;;;;;;5036835;28;20538;-72
2021/01/30 01:42:10;;;;;;;36.60;7.82;;;8.30;92.20;;;;;;5038459;28;20032;-72
2021/01/30 01:44:36;;;;;;;29.73;8.02;;;8.30;92.20;;;;;;5038375;28;20107;-73
2021/01/30 01:47:06;;;;;;;30.05;6.60;;;8.30;92.10;;;;;;5034852;28;20037;-72
2021/01/30 01:49:35;;;;;;;21.92;6.13;;;8.30;92.10;;;;;;5036083;28;20037;-74
2021/01/30 01:52:09;;;;;;;33.85;7.25;;;8.30;92.00;;;;;;5035222;28;20744;-72
2021/01/30 01:54:37;;;;;;;24.52;6.85;;;8.30;91.90;;;;;;5035135;28;20087;-73
2021/01/30 01:57:14;;;;;;;29.23;7.18;;;8.20;91.80;;;;;;5037473;28;20029;-75
2021/01/30 01:59:55;;;;;;;31.55;6.25;;;8.20;91.90;;;;;;5038017;28;20045;-73
2021/01/30 02:02:23;;;;;;;26.25;6.28;;;8.20;91.90;;;;;;5036950;28;22694;-73
2021/01/30 02:05:07;;;;;;;32.47;6.57;;;8.20;91.80;;;;;;5035626;28;20163;-72
2021/01/30 02:07:40;;;;;;;31.30;6.80;;;8.20;91.80;;;;;;5033783;28;20041;-72
2021/01/30 02:10:09;;;;;;;39.85;7.35;;;8.20;91.90;;;;;;5035007;28;20465;-71
2021/01/30 02:12:35;;;;;;;37.92;7.13;;;8.20;91.90;;;;;;5036753;28;20041;-72
2021/01/30 02:15:00;;;;;;;32.85;7.07;;;8.20;91.80;;;;;;5035916;28;20732;-72
2021/01/30 02:17:37;;;;;;;33.25;8.30;;;8.20;91.90;;;;;;5037722;28;20388;-71
2021/01/30 02:20:41;;;;;;;24.88;6.47;;;8.20;91.90;;;;;;5039158;28;20367;-72
2021/01/30 02:23:29;;;;;;;29.75;6.93;;;8.20;92.00;;;;;;5026064;28;20045;-71
2021/01/30 02:26:31;;;;;;;29.35;9.02;;;8.10;92.00;;;;;;5033287;28;20086;-71
2021/01/30 02:29:12;;;;;;;30.55;7.80;;;8.10;92.10;;;;;;5039694;28;20049;-71
2021/01/30 02:32:15;;;;;;;31.63;7.57;;;8.20;92.00;;;;;;5047077;28;20373;-71
2021/01/30 02:35:06;;;;;;;37.88;7.53;;;8.20;92.00;;;;;;5038269;28;20045;-71
2021/01/30 02:37:39;;;;;;;30.55;6.60;;;8.20;92.00;;;;;;5031080;28;20864;-71
2021/01/30 02:40:11;;;;;;;31.73;8.00;;;8.20;92.00;;;;;;5033081;28;20509;-71
2021/01/30 02:42:44;;;;;;;30.33;7.57;;;8.20;92.10;;;;;;5033375;28;20164;-74
2021/01/30 02:45:19;;;;;;;34.05;7.53;;;8.20;91.90;;;;;;5035290;28;20037;-71
2021/01/30 02:48:05;;;;;;;34.42;7.45;;;8.20;91.90;;;;;;5049345;28;20108;-70
2021/01/30 02:50:46;;;;;;;27.00;6.20;;;8.20;91.80;;;;;;5034183;28;20075;-72
2021/01/30 02:53:18;;;;;;;30.60;6.95;;;8.20;91.90;;;;;;5033378;28;20044;-72
2021/01/30 02:55:44;;;;;;;35.63;7.78;;;8.20;92.00;;;;;;5035988;28;20120;-71
2021/01/30 02:58:13;;;;;;;36.28;7.80;;;8.20;92.10;;;;;;5034368;28;20041;-71
2021/01/30 03:00:40;;;;;;;33.22;7.50;;;8.20;92.10;;;;;;5038304;28;20045;-71
2021/01/30 03:03:06;;;;;;;31.38;7.55;;;8.20;92.10;;;;;;5034295;28;20462;-71
2021/01/30 03:05:32;;;;;;;29.25;8.95;;;8.20;92.00;;;;;;5035737;28;20041;-71
2021/01/30 03:08:18;;;;;;;37.80;7.72;;;8.20;92.10;;;;;;5035662;28;20559;-71
2021/01/30 03:10:54;;;;;;;33.10;6.75;;;8.20;92.10;;;;;;5038321;28;20033;-73
2021/01/30 03:13:54;;;;;;;29.67;6.70;;;8.20;92.10;;;;;;5033190;28;20032;-73
2021/01/30 03:16:23;;;;;;;33.92;6.93;;;8.20;92.10;;;;;;5031462;28;20041;-73
2021/01/30 03:18:56;;;;;;;19.88;6.05;;;8.30;92.20;;;;;;5034022;28;20060;-73
2021/01/30 03:21:23;;;;;;;27.20;6.95;;;8.20;92.10;;;;;;5034137;28;20473;-73
2021/01/30 03:23:51;;;;;;;28.35;7.30;;;8.20;92.20;;;;;;5032347;28;20065;-73
2021/01/30 03:26:20;;;;;;;27.25;7.07;;;8.20;92.20;;;;;;5036632;28;20036;-73
2021/01/30 03:28:47;;;;;;;30.60;8.23;;;8.20;92.30;;;;;;5036239;28;20456;-73
2021/01/30 03:31:13;;;;;;;33.30;6.70;;;8.30;92.30;;;;;;5036616;28;20033;-71
2021/01/30 03:33:39;;;;;;;33.25;7.15;;;8.20;92.30;;;;;;5035743;28;20117;-74
2021/01/30 03:36:05;;;;;;;29.45;7.57;;;8.20;92.30;;;;;;5032123;28;20084;-74
2021/01/30 03:38:32;;;;;;;27.65;7.55;;;8.20;92.50;;;;;;5035011;28;20037;-73
2021/01/30 03:40:57;;;;;;;33.47;8.23;;;8.20;92.60;;;;;;5032642;28;20396;-73
2021/01/30 03:43:23;;;;;;;22.63;7.25;;;8.20;92.60;;;;;;5033020;28;20036;-74
2021/01/30 03:45:49;;;;;;;24.92;6.80;;;8.20;92.70;;;;;;5035028;28;20029;-72
2021/01/30 03:48:14;;;;;;;27.85;7.18;;;8.20;92.70;;;;;;5030427;28;20325;-73
2021/01/30 03:50:40;;;;;;;37.63;8.73;;;8.20;92.80;;;;;;5034660;28;20111;-71
2021/01/30 03:53:07;;;;;;;23.38;7.03;;;8.10;92.80;;;;;;5039010;28;20059;-74
2021/01/30 03:55:34;;;;;;;23.15;6.75;;;8.20;92.80;;;;;;5034239;28;20489;-76
2021/01/30 03:57:59;;;;;;;23.55;7.05;;;8.20;92.80;;;;;;5034853;28;20037;-73
2021/01/30 04:00:25;;;;;;;24.77;6.57;;;8.20;92.80;;;;;;5037835;28;20389;-71
2021/01/30 04:02:52;;;;;;;30.67;7.18;;;8.10;92.90;;;;;;5034106;28;20139;-77
2021/01/30 04:05:25;;;;;;;29.38;7.57;;;8.20;93.00;;;;;;5036319;28;20061;-73
2021/01/30 04:07:51;;;;;;;30.20;9.55;;;8.20;93.00;;;;;;5034550;28;20151;-74
2021/01/30 04:10:22;;;;;;;21.92;14.13;;;8.10;93.00;;;;;;5030196;28;20044;-71
2021/01/30 04:12:48;;;;;;;23.83;17.15;;;7.90;92.20;;;;;;5033350;28;20461;-72
2021/01/30 04:15:18;;;;;;;23.25;16.67;;;7.70;92.40;;;;;;5034729;28;20078;-71
2021/01/30 04:17:44;;;;;;;21.92;15.98;;;7.60;92.60;;;;;;5034141;28;20044;-71
2021/01/30 04:20:11;;;;;;;21.23;16.35;;;7.30;92.80;;;;;;5031141;28;20033;-71
2021/01/30 04:22:36;;;;;;;27.48;18.27;;;7.10;92.90;;;;;;5034534;28;20469;-70
2021/01/30 04:25:03;;;;;;;24.33;18.10;;;7.10;93.10;;;;;;5034038;28;20110;-72
2021/01/30 04:27:29;;;;;;;19.83;14.48;;;6.90;92.80;;;;;;5044078;28;20014;-74
2021/01/30 04:29:55;;;;;;;18.23;12.90;;;6.80;92.80;;;;;;5039017;28;20111;-71
2021/01/30 04:32:20;;;;;;;49.80;38.38;;;6.70;92.50;;;;;;5040264;28;20139;-72
2021/01/30 04:34:46;;;;;;;19.05;14.10;;;6.60;92.80;;;;;;5037934;28;20457;-71
2021/01/30 04:37:12;;;;;;;19.35;13.02;;;6.60;92.50;;;;;;5035640;28;20127;-71
2021/01/30 04:39:38;;;;;;;17.20;12.88;;;6.40;92.70;;;;;;5041634;28;20044;-71
2021/01/30 04:42:10;;;;;;;20.38;13.48;;;6.40;92.80;;;;;;5049414;28;20091;-72
2021/01/30 04:44:47;;;;;;;20.45;15.00;;;6.30;93.00;;;;;;5046657;28;20529;-72
2021/01/30 04:47:17;;;;;;;22.08;16.27;;;6.30;93.20;;;;;;5045052;28;20025;-72
2021/01/30 04:50:12;;;;;;;24.30;18.27;;;6.30;93.30;;;;;;5036785;28;20129;-71
2021/01/30 04:52:56;;;;;;;;;;;6.20;93.30;;;;;;5038299;28;20041;-71
2021/01/30 04:55:44;;;;;;;27.95;20.58;;;6.20;93.30;;;;;;5037817;28;20352;-71
2021/01/30 04:58:37;;;;;;;27.23;20.35;;;6.10;93.20;;;;;;5039570;28;20146;-71
2021/01/30 05:01:23;;;;;;;29.23;22.95;;;6.10;93.20;;;;;;5040333;28;20049;-70
2021/01/30 05:04:03;;;;;;;28.25;20.48;;;6.00;93.20;;;;;;5038789;28;20049;-71
2021/01/30 05:06:41;;;;;;;29.98;21.58;;;5.90;93.00;;;;;;5037161;28;20040;-74
2021/01/30 05:09:31;;;;;;;31.08;23.00;;;5.60;92.90;;;;;;5038999;28;20237;-71
2021/01/30 05:12:02;;;;;;;31.02;22.15;;;5.50;93.20;;;;;;5036613;28;20063;-70
2021/01/30 05:14:33;;;;;;;30.55;22.35;;;5.40;93.20;;;;;;5038879;28;20091;-71
2021/01/30 05:17:11;;;;;;;32.10;24.23;;;5.20;93.30;;;;;;5035303;28;20083;-72
2021/01/30 05:19:43;;;;;;;34.45;24.63;;;5.20;93.40;;;;;;5033659;28;20045;-71
2021/01/30 05:22:12;;;;;;;32.05;23.00;;;5.20;93.30;;;;;;5033715;28;20393;-71
2021/01/30 05:24:38;;;;;;;30.05;22.20;;;5.10;93.10;;;;;;5035362;28;20060;-71
2021/01/30 05:27:12;;;;;;;31.38;21.85;;;5.20;93.20;;;;;;5037188;28;20468;-71
2021/01/30 05:30:09;;;;;;;29.33;21.83;;;5.20;93.20;;;;;;5036544;28;20055;-71
2021/01/30 05:32:43;;;;;;;33.67;24.40;;;5.10;92.80;;;;;;5038224;28;20408;-71
2021/01/30 05:35:18;;;;;;;32.00;24.40;;;5.00;92.80;;;;;;5038335;28;20162;-72
2021/01/30 05:37:53;;;;;;;32.58;23.73;;;4.80;92.40;;;;;;5037896;28;20517;-71
2021/01/30 05:40:18;;;;;;;30.35;21.95;;;4.70;92.50;;;;;;5036565;28;20484;-73
2021/01/30 05:43:27;;;;;;;32.40;19.73;;;4.70;92.50;;;;;;5035716;28;20118;-71
2021/01/30 05:45:57;;;;;;;28.90;18.35;;;4.60;92.30;;;;;;5036544;28;20048;-74
2021/01/30 05:48:26;;;;;;;27.30;18.85;;;4.50;92.10;;;;;;5036005;28;20029;-71
2021/01/30 05:50:56;;;;;;;26.80;17.73;;;4.40;92.30;;;;;;5037747;28;20123;-70
2021/01/30 05:53:24;;;;;;;27.50;18.45;;;4.50;92.50;;;;;;5036875;28;20044;-72
2021/01/30 05:55:50;;;;;;;27.52;17.52;;;4.40;92.50;;;;;;5037545;28;20034;-73
2021/01/30 05:58:20;;;;;;;26.05;16.92;;;4.40;92.40;;;;;;5038422;28;20045;-71
2021/01/30 06:00:46;;;;;;;26.60;17.58;;;4.40;92.70;;;;;;5042512;28;20203;-73
2021/01/30 06:03:18;;;;;;;25.63;16.95;;;4.40;92.50;;;;;;5051381;28;20114;-70
2021/01/30 06:05:52;;;;;;;29.77;18.15;;;4.40;92.50;;;;;;5039950;28;20040;-70
2021/01/30 06:08:26;;;;;;;26.88;16.95;;;4.40;92.50;;;;;;5035366;28;20086;-75
2021/01/30 06:11:12;;;;;;;26.38;17.20;;;4.40;92.30;;;;;;5036582;28;20041;-71
2021/01/30 06:14:02;;;;;;;30.80;22.83;;;4.30;92.10;;;;;;5035571;28;20051;-70
2021/01/30 06:16:59;;;;;;;27.15;19.77;;;4.30;92.10;;;;;;5038533;28;20495;-71
2021/01/30 06:19:26;;;;;;;22.98;16.08;;;4.20;91.70;;;;;;5036177;28;20397;-72
2021/01/30 06:22:22;;;;;;;22.15;15.07;;;4.20;91.80;;;;;;5036538;28;20025;-72
2021/01/30 06:24:48;;;;;;;;;;;4.10;91.70;;;;;;5036157;28;20040;-71
2021/01/30 06:27:27;;;;;;;24.30;17.83;;;4.10;91.80;;;;;;5033420;28;19917;-72
2021/01/30 06:30:00;;;;;;;24.83;15.85;;;4.10;91.80;;;;;;5036359;28;20049;-73
2021/01/30 06:32:43;;;;;;;21.08;14.75;;;4.00;91.80;;;;;;5032938;28;20395;-71
2021/01/30 06:35:21;;;;;;;21.55;15.70;;;3.90;91.50;;;;;;5033740;28;20525;-70
2021/01/30 06:38:01;;;;;;;24.58;15.57;;;3.80;91.50;;;;;;5036026;28;20028;-70
2021/01/30 06:40:34;;;;;;;27.23;19.15;;;3.80;91.40;;;;;;5035447;28;20531;-72
2021/01/30 06:43:21;;;;;;;21.45;16.42;;;3.80;91.50;;;;;;5035815;28;20112;-74
2021/01/30 06:45:47;;;;;;;35.55;24.20;;;3.70;91.30;;;;;;5035971;28;20048;-70
2021/01/30 06:48:32;;;;;;;29.50;18.50;;;3.70;91.30;;;;;;5035889;28;20473;-70
2021/01/30 06:50:58;;;;;;;38.40;23.58;;;3.70;91.40;;;;;;5032728;28;20119;-71
2021/01/30 06:53:31;;;;;;;71.47;38.72;;;3.60;91.40;;;;;;5036569;28;20111;-73
2021/01/30 06:56:16;;;;;;;68.72;39.97;;;3.70;91.60;;;;;;5035254;28;20384;-72
2021/01/30 06:58:43;;;;;;;50.20;30.30;;;3.70;91.70;;;;;;5034200;28;20052;-73
2021/01/30 07:01:20;;;;;;;89.85;53.47;;;3.70;91.80;;;;;;5033690;28;20041;-71
2021/01/30 07:03:59;;;;;;;45.47;29.70;;;3.80;91.60;;;;;;5035655;28;20060;-71
2021/01/30 07:06:29;;;;;;;66.07;42.97;;;3.80;91.70;;;;;;5035250;28;20088;-72
2021/01/30 07:08:59;;;;;;;63.85;38.15;;;3.80;91.50;;;;;;5038913;28;20040;-72
2021/01/30 07:11:43;;;;;;;49.08;35.17;;;3.80;91.40;;;;;;5037577;28;20540;-73
2021/01/30 07:14:15;;;;;;;52.63;34.83;;;3.70;91.20;;;;;;5033650;28;20562;-73
2021/01/30 07:16:41;;;;;;;49.17;33.45;;;3.70;91.30;;;;;;5034770;28;20127;-74
2021/01/30 07:19:27;;;;;;;41.78;28.40;;;3.60;91.20;;;;;;5040170;28;20427;-71
2021/01/30 07:21:59;;;;;;;35.55;27.27;;;3.70;91.50;;;;;;5036310;28;20036;-71
2021/01/30 07:24:37;;;;;;;36.08;25.30;;;3.60;91.60;;;;;;5031359;28;21589;-71
2021/01/30 07:27:22;;;;;;;41.65;31.70;;;3.70;91.50;;;;;;5034773;28;20048;-71
2021/01/30 07:29:53;;;;;;;30.42;21.98;;;3.70;91.40;;;;;;5048705;28;20045;-71
2021/01/30 07:32:33;;;;;;;27.05;21.88;;;3.80;91.60;;;;;;5033547;28;20037;-72
2021/01/30 07:35:24;;;;;;;134.50;85.90;;;3.70;91.40;;;;;;5051411;28;20129;-71
2021/01/30 07:38:13;;;;;;;26.88;19.80;;;3.70;91.60;;;;;;5033761;28;20036;-73
2021/01/30 07:40:56;;;;;;;25.48;18.85;;;3.70;91.50;;;;;;5032193;28;20048;-74
2021/01/30 07:43:30;;;;;;;98.53;48.08;;;3.70;91.60;;;;;;5031670;28;20029;-72
2021/01/30 07:46:17;;;;;;;50.85;31.80;;;3.70;91.70;;;;;;5034626;28;20443;-71
2021/01/30 07:48:57;;;;;;;28.65;19.83;;;3.70;91.80;;;;;;5034163;28;20044;-73
2021/01/30 07:51:28;;;;;;;23.42;15.85;;;3.70;91.90;;;;;;5032958;28;20116;-72
2021/01/30 07:53:53;;;;;;;16.27;11.60;;;3.80;91.70;;;;;;5032838;28;20029;-72
2021/01/30 07:56:19;;;;;;;16.27;11.43;;;3.70;91.60;;;;;;5034222;28;20438;-71
2021/01/30 07:59:03;;;;;;;16.13;11.13;;;3.70;91.40;;;;;;5033793;28;20053;-70
2021/01/30 08:02:23;;;;;;;14.95;11.23;;;3.60;91.30;;;;;;5032403;28;20049;-72
2021/01/30 08:05:26;;;;;;;13.57;10.07;;;3.60;90.90;;;;;;5010199;28;20571;-73
2021/01/30 08:08:02;;;;;;;19.00;15.02;;;3.70;91.30;;;;;;5033414;28;20033;-77
2021/01/30 08:10:49;;;;;;;58.33;35.65;;;3.60;91.10;;;;;;5032401;28;20041;-73
2021/01/30 08:13:47;;;;;;;15.40;11.27;;;3.60;91.30;;;;;;5030900;28;20043;-72
2021/01/30 08:16:32;;;;;;;13.68;10.30;;;3.60;91.40;;;;;;5032978;28;20190;-74
2021/01/30 08:19:01;;;;;;;;;;;3.60;91.10;;;;;;5035092;28;20044;-72
2021/01/30 08:21:43;;;;;;;20.90;10.88;;;3.60;90.90;;;;;;5032347;28;20330;-72
2021/01/30 08:24:08;;;;;;;17.10;9.20;;;3.50;90.90;;;;;;5038788;28;20044;-73
2021/01/30 08:26:44;;;;;;;14.63;9.30;;;3.50;91.00;;;;;;5031167;28;20037;-73
2021/01/30 08:29:11;;;;;;;15.32;9.73;;;3.50;91.00;;;;;;5033082;28;20045;-75
2021/01/30 08:31:44;;;;;;;12.23;8.50;;;3.50;91.20;;;;;;5033208;28;20118;-71
2021/01/30 08:34:26;;;;;;;31.30;19.38;;;3.50;91.40;;;;;;5031200;28;20035;-72
2021/01/30 08:36:59;;;;;;;20.23;13.70;;;3.50;91.40;;;;;;5031235;28;20036;-75
2021/01/30 08:39:34;;;;;;;15.73;11.10;;;3.50;91.00;;;;;;5027566;28;20495;-73
2021/01/30 08:42:16;;;;;;;13.98;9.93;;;3.40;91.00;;;;;;5032622;28;20041;-74
2021/01/30 08:44:53;;;;;;;17.52;10.40;;;3.40;91.20;;;;;;5029021;28;20045;-76
2021/01/30 08:47:32;;;;;;;17.65;10.85;;;3.30;91.00;;;;;;5030842;28;20551;-73
2021/01/30 08:50:03;;;;;;;14.77;9.55;;;3.30;91.20;;;;;;5035897;28;20128;-73
2021/01/30 08:52:37;;;;;;;15.85;9.85;;;3.40;91.10;;;;;;5030672;28;20083;-73
2021/01/30 08:55:37;;;;;;;16.40;10.60;;;3.30;90.90;;;;;;5032484;28;20106;-72
2021/01/30 08:58:03;;;;;;;15.05;9.93;;;3.30;90.90;;;;;;5048608;28;20056;-74
2021/01/30 09:00:29;;;;;;;15.00;9.98;;;3.30;91.20;;;;;;5034476;28;20069;-73
2021/01/30 09:03:04;;;;;;;13.68;10.07;;;3.30;91.20;;;;;;5031531;28;20484;-72
2021/01/30 09:05:33;;;;;;;13.90;9.23;;;3.30;91.10;;;;;;5036208;28;20450;-75
2021/01/30 09:08:11;;;;;;;14.63;10.35;;;3.30;91.20;;;;;;5033639;28;20056;-74
2021/01/30 09:10:39;;;;;;;13.90;9.77;;;3.30;91.20;;;;;;5046580;28;20033;-73
2021/01/30 09:13:06;;;;;;;14.65;9.93;;;3.30;91.00;;;;;;5038120;28;20036;-73
2021/01/30 09:15:54;;;;;;;14.80;10.25;;;3.30;91.30;;;;;;5031477;28;20033;-75
2021/01/30 09:18:32;;;;;;;13.85;9.93;;;3.40;91.20;;;;;;5034038;28;20029;-73
2021/01/30 09:21:18;;;;;;;13.82;10.35;;;3.30;90.80;;;;;;5050239;28;20380;-73
2021/01/30 09:24:21;;;;;;;13.20;9.10;;;3.20;90.90;;;;;;5038626;28;20029;-74
2021/01/30 09:27:05;;;;;;;15.60;10.00;;;3.30;90.90;;;;;;5034547;28;20113;-73
2021/01/30 09:29:42;;;;;;;14.55;10.52;;;3.20;90.90;;;;;;5037024;28;20114;-74
2021/01/30 09:32:12;;;;;;;16.67;11.55;;;3.30;91.10;;;;;;5038909;28;20119;-73
2021/01/30 09:35:08;;;;;;;14.45;10.48;;;3.40;91.10;;;;;;5037233;28;20061;-75
2021/01/30 09:37:43;;;;;;;15.15;10.57;;;3.30;90.90;;;;;;5038141;28;20029;-70
2021/01/30 09:40:23;;;;;;;13.10;9.10;;;3.30;90.90;;;;;;5036821;28;20040;-75
2021/01/30 09:42:59;;;;;;;14.02;9.23;;;3.30;91.00;;;;;;5035634;28;20643;-69
2021/01/30 09:45:25;;;;;;;13.55;9.13;;;3.30;90.80;;;;;;5037453;28;20696;-70
2021/01/30 09:47:53;;;;;;;13.55;8.88;;;3.30;90.90;;;;;;5037747;28;20036;-71
2021/01/30 09:50:35;;;;;;;13.13;8.60;;;3.30;90.70;;;;;;5033696;28;20094;-70
2021/01/30 09:53:04;;;;;;;13.40;9.25;;;3.30;90.80;;;;;;5034475;28;20056;-72
2021/01/30 09:55:30;;;;;;;12.00;8.55;;;3.30;90.80;;;;;;5023930;28;20184;-70
2021/01/30 09:58:11;;;;;;;11.93;8.45;;;3.30;90.60;;;;;;5023828;28;20049;-72
2021/01/30 10:00:45;;;;;;;12.68;8.65;;;3.30;90.80;;;;;;5030547;28;20075;-71
2021/01/30 10:03:21;;;;;;;12.53;7.93;;;3.30;90.70;;;;;;5023696;28;20614;-72
2021/01/30 10:05:53;;;;;;;12.90;8.90;;;3.30;90.50;;;;;;5024090;28;20107;-70
2021/01/30 10:08:29;;;;;;;13.00;9.05;;;3.30;90.60;;;;;;5030029;28;20760;-69
2021/01/30 10:11:12;;;;;;;11.48;7.82;;;3.30;90.70;;;;;;5032599;28;20037;-72
2021/01/30 10:13:44;;;;;;;12.70;8.40;;;3.30;90.60;;;;;;5030594;28;20036;-70
2021/01/30 10:16:21;;;;;;;12.55;8.52;;;3.30;90.70;;;;;;5023043;28;20037;-73
2021/01/30 10:18:51;;;;;;;16.65;8.02;;;3.20;90.80;;;;;;5019092;28;20051;-74
2021/01/30 10:21:29;;;;;;;12.32;8.52;;;3.30;90.90;;;;;;5008884;28;20037;-70
2021/01/30 10:23:55;;;;;;;12.63;8.32;;;3.30;90.80;;;;;;5016057;28;20668;-73
2021/01/30 10:26:28;;;;;;;11.38;7.80;;;3.30;90.90;;;;;;5021107;28;20407;-71
2021/01/30 10:29:03;;;;;;;11.15;7.15;;;3.30;90.80;;;;;;5023511;28;20065;-73
2021/01/30 10:31:43;;;;;;;12.50;7.82;;;3.20;90.80;;;;;;5020844;28;20140;-74
2021/01/30 10:34:24;;;;;;;12.95;8.68;;;3.20;90.60;;;;;;5015987;28;20115;-72
2021/01/30 10:36:53;;;;;;;13.23;8.93;;;3.20;90.90;;;;;;5022345;28;20570;-70
2021/01/30 10:39:20;;;;;;;14.30;8.25;;;3.30;90.60;;;;;;5020354;28;20072;-69
2021/01/30 10:41:45;;;;;;;12.35;8.18;;;3.20;90.70;;;;;;5017342;28;20037;-71
2021/01/30 10:44:20;;;;;;;16.13;9.38;;;3.20;90.60;;;;;;5022084;28;20138;-68
2021/01/30 10:46:46;;;;;;;13.77;9.20;;;3.30;91.00;;;;;;5033340;28;20044;-68
2021/01/30 10:49:26;;;;;;;14.35;9.63;;;3.30;90.90;;;;;;5034786;28;20041;-68
2021/01/30 10:52:23;;;;;;;16.42;10.43;;;3.30;90.60;;;;;;5035147;28;20033;-69
2021/01/30 10:54:48;;;;;;;15.80;10.13;;;3.10;90.40;;;;;;5031671;28;20329;-69
2021/01/30 10:57:17;;;;;;;16.10;10.55;;;3.10;90.70;;;;;;5034307;28;20043;-68
2021/01/30 10:59:50;;;;;;;17.08;11.20;;;3.10;90.30;;;;;;5032511;28;20056;-68
2021/01/30 11:02:37;;;;;;;18.90;12.20;;;3.10;90.40;;;;;;5038804;28;20041;-68
2021/01/30 11:05:11;;;;;;;18.08;12.32;;;3.10;90.10;;;;;;5032412;28;20038;-68
2021/01/30 11:08:00;;;;;;;20.45;13.38;;;3.10;90.20;;;;;;5040125;28;20400;-68
2021/01/30 11:10:41;;;;;;;20.17;12.98;;;3.10;90.40;;;;;;5034075;28;20086;-68
2021/01/30 11:13:22;;;;;;;18.60;13.00;;;3.10;90.50;;;;;;5032198;28;20389;-68
2021/01/30 11:15:48;;;;;;;19.70;13.63;;;3.10;90.40;;;;;;5037934;28;20044;-68
2021/01/30 11:18:27;;;;;;;19.17;12.88;;;3.20;90.30;;;;;;5032935;28;20047;-68
2021/01/30 11:20:55;;;;;;;19.75;12.95;;;3.20;90.40;;;;;;5037490;28;20049;-68
2021/01/30 11:23:32;;;;;;;19.50;12.80;;;3.20;90.10;;;;;;5035973;28;25652;-71
2021/01/30 11:26:09;;;;;;;18.70;12.15;;;3.30;90.20;;;;;;5037614;28;20033;-69
2021/01/30 11:28:35;;;;;;;19.08;12.73;;;3.30;90.20;;;;;;5033971;28;20693;-70
2021/01/30 11:31:01;;;;;;;18.63;12.98;;;3.40;90.00;;;;;;5034805;28;20192;-73
2021/01/30 11:33:28;;;;;;;19.55;13.50;;;3.30;89.70;;;;;;5036122;28;20094;-68
2021/01/30 11:35:54;;;;;;;21.80;14.43;;;3.30;89.80;;;;;;5034276;28;20434;-68
2021/01/30 11:38:24;;;;;;;21.20;14.63;;;3.20;89.80;;;;;;5031820;28;20132;-69
2021/01/30 11:40:52;;;;;;;21.70;14.30;;;3.10;90.20;;;;;;5029038;28;20046;-70
2021/01/30 11:43:18;;;;;;;23.27;16.17;;;3.10;90.10;;;;;;5029272;28;20047;-73
2021/01/30 11:45:45;;;;;;;22.63;15.57;;;3.10;90.50;;;;;;5026403;28;20033;-69
2021/01/30 11:48:12;;;;;;;23.38;16.05;;;3.10;90.60;;;;;;5028092;28;20453;-70
2021/01/30 11:50:38;;;;;;;22.38;15.63;;;3.10;90.20;;;;;;5050104;28;20416;-70
2021/01/30 11:53:15;;;;;;;25.65;16.95;;;3.10;90.00;;;;;;5024799;28;20041;-72
2021/01/30 11:55:41;;;;;;;23.40;16.63;;;3.10;90.40;;;;;;5030169;28;20664;-69
2021/01/30 11:58:08;;;;;;;24.15;16.65;;;3.10;90.50;;;;;;5023447;28;20036;-73
2021/01/30 12:00:34;;;;;;;23.45;15.75;;;3.20;90.20;;;;;;5026193;28;20477;-71
2021/01/30 12:03:00;;;;;;;28.50;18.55;;;3.20;89.70;;;;;;5033995;28;20079;-71
2021/01/30 12:05:26;;;;;;;26.58;18.88;;;3.20;90.10;;;;;;5017862;28;20033;-70
2021/01/30 12:07:52;;;;;;;26.13;18.30;;;3.30;90.10;;;;;;5025308;28;20498;-69
2021/01/30 12:10:18;;;;;;;28.90;19.95;;;3.30;89.60;;;;;;5026056;28;20044;-67
2021/01/30 12:12:45;;;;;;;29.40;19.98;;;3.30;89.60;;;;;;5024872;28;20033;-71
2021/01/30 12:15:11;;;;;;;30.30;21.05;;;3.20;89.70;;;;;;5043395;28;20059;-70
2021/01/30 12:17:45;;;;;;;31.88;21.98;;;3.30;89.90;;;;;;5029734;28;20078;-70
2021/01/30 12:20:19;;;;;;;32.10;20.75;;;3.30;89.60;;;;;;5026462;28;20119;-68
2021/01/30 12:22:45;;;;;;;31.85;21.23;;;3.30;89.60;;;;;;5033725;28;20128;-68
2021/01/30 12:25:11;;;;;;;32.67;22.48;;;3.30;90.00;;;;;;5038225;28;20484;-69
2021/01/30 12:27:41;;;;;;;33.17;22.55;;;3.40;90.10;;;;;;5039946;28;20033;-71
2021/01/30 12:30:07;;;;;;;32.35;22.25;;;3.30;89.60;;;;;;5034258;28;20051;-68
2021/01/30 12:32:35;;;;;;;33.45;23.52;;;3.30;89.80;;;;;;5038140;28;20037;-68
2021/01/30 12:35:04;;;;;;;34.20;23.58;;;3.40;89.90;;;;;;5034224;28;20045;-70
2021/01/30 12:37:29;;;;;;;35.22;23.35;;;3.30;89.80;;;;;;5031954;28;20039;-68
2021/01/30 12:39:55;;;;;;;35.75;24.63;;;3.40;90.10;;;;;;5025189;28;20214;-68
2021/01/30 12:42:20;;;;;;;38.03;25.42;;;3.40;89.80;;;;;;5032624;28;20059;-72
2021/01/30 12:44:47;;;;;;;36.25;25.02;;;3.40;89.70;;;;;;5023875;28;20079;-69
2021/01/30 12:47:24;;;;;;;40.45;27.20;;;3.40;89.60;;;;;;5027346;28;20037;-72
2021/01/30 12:49:50;;;;;;;35.97;24.50;;;3.50;89.80;;;;;;5028529;28;20057;-70
2021/01/30 12:52:15;;;;;;;37.97;26.52;;;3.50;89.50;;;;;;5032873;28;20139;-69
2021/01/30 12:54:41;;;;;;;38.17;25.45;;;3.40;89.40;;;;;;5031387;28;20037;-73
2021/01/30 12:57:06;;;;;;;35.40;24.90;;;3.30;89.20;;;;;;5027627;28;20037;-69
2021/01/30 12:59:32;;;;;;;38.78;27.13;;;3.40;89.30;;;;;;5033924;28;20049;-70
2021/01/30 13:01:57;;;;;;;39.45;26.08;;;3.40;89.60;;;;;;5036458;28;20041;-70
2021/01/30 13:04:23;;;;;;;38.08;27.63;;;3.40;89.60;;;;;;5032034;28;20036;-71
2021/01/30 13:06:49;;;;;;;39.00;27.55;;;3.40;89.10;;;;;;5048031;28;20589;-71
2021/01/30 13:09:14;;;;;;;38.53;26.08;;;3.20;89.60;;;;;;5031386;28;20037;-67
2021/01/30 13:11:40;;;;;;;40.35;27.83;;;3.20;90.00;;;;;;5034671;28;20032;-68
2021/01/30 13:14:05;;;;;;;40.92;27.83;;;3.30;89.90;;;;;;5024668;28;20079;-69